createdAt,value
2019-03-10T00:00:32.458Z,11.12
2019-03-10T00:02:59.715Z,11.12
2019-03-10T00:05:27.373Z,11.12
2019-03-10T00:07:56.408Z,11.13
2019-03-10T00:10:23.184Z,11.10
2019-03-10T00:12:50.667Z,11.10
2019-03-10T00:15:17.791Z,11.10
2019-03-10T00:17:44.616Z,11.10
2019-03-10T00:20:11.753Z,11.08
2019-03-10T00:22:39.131Z,11.05
2019-03-10T00:25:09.114Z,11.05
2019-03-10T00:27:36.189Z,11.04
2019-03-10T00:30:15.302Z,11.03
2019-03-10T00:32:42.383Z,11.02
2019-03-10T00:35:09.607Z,11.01
2019-03-10T00:37:36.439Z,11.01
2019-03-10T00:40:44.026Z,11.00
2019-03-10T00:43:51.897Z,10.99
2019-03-10T00:46:56.831Z,10.97
2019-03-10T00:49:52.132Z,10.97
2019-03-10T00:52:30.418Z,10.97
2019-03-10T00:54:57.629Z,10.99
2019-03-10T00:57:24.470Z,10.97
2019-03-10T00:59:51.646Z,10.94
2019-03-10T01:02:18.589Z,10.92
2019-03-10T01:04:45.516Z,10.93
2019-03-10T01:07:12.489Z,10.93
2019-03-10T01:09:39.752Z,10.92
2019-03-10T01:12:07.528Z,10.91
2019-03-10T01:14:34.897Z,10.88
2019-03-10T01:17:02.101Z,10.84
2019-03-10T01:19:31.968Z,10.82
2019-03-10T01:21:59.637Z,10.80
2019-03-10T01:24:26.735Z,10.77
2019-03-10T01:26:53.868Z,10.76
2019-03-10T01:29:21.285Z,10.74
2019-03-10T01:31:59.427Z,10.70
2019-03-10T01:34:44.552Z,10.69
2019-03-10T01:37:11.773Z,10.66
2019-03-10T01:39:38.977Z,10.70
2019-03-10T01:42:06.924Z,10.73
2019-03-10T01:44:33.765Z,10.78
2019-03-10T01:47:06.893Z,10.83
2019-03-10T01:49:37.031Z,10.88
2019-03-10T01:52:04.011Z,10.91
2019-03-10T01:54:31.091Z,10.93
2019-03-10T01:56:58.954Z,10.95
2019-03-10T01:59:26.242Z,10.95
2019-03-10T02:01:53.019Z,10.96
2019-03-10T02:04:19.869Z,10.97
2019-03-10T02:06:47.952Z,11.00
2019-03-10T02:09:14.752Z,10.99
2019-03-10T02:11:41.863Z,11.00
2019-03-10T02:14:08.718Z,10.99
2019-03-10T02:16:35.845Z,10.98
2019-03-10T02:19:03.127Z,10.97
2019-03-10T02:21:30.454Z,10.97
2019-03-10T02:23:57.189Z,11.00
2019-03-10T02:26:23.937Z,11.02
2019-03-10T02:28:50.692Z,11.02
2019-03-10T02:31:17.639Z,11.02
2019-03-10T02:33:44.444Z,11.02
2019-03-10T02:36:11.298Z,11.01
2019-03-10T02:38:38.469Z,11.02
2019-03-10T02:41:05.378Z,11.00
2019-03-10T02:43:32.210Z,11.00
2019-03-10T02:45:59.456Z,10.95
2019-03-10T02:48:26.597Z,10.94
2019-03-10T02:50:53.549Z,10.91
2019-03-10T02:53:20.317Z,10.89
2019-03-10T02:55:47.081Z,10.90
2019-03-10T02:58:13.803Z,10.86
2019-03-10T03:00:40.888Z,10.82
2019-03-10T03:03:08.039Z,10.85
2019-03-10T03:05:35.191Z,10.85
2019-03-10T03:08:01.985Z,10.83
2019-03-10T03:10:28.802Z,10.78
2019-03-10T03:12:55.934Z,10.75
2019-03-10T03:15:23.066Z,10.73
2019-03-10T03:17:50.217Z,10.73
2019-03-10T03:20:17.076Z,10.72
2019-03-10T03:22:43.943Z,10.68
2019-03-10T03:25:11.773Z,10.65
2019-03-10T03:27:39.025Z,10.58
2019-03-10T03:30:14.424Z,10.52
2019-03-10T03:32:41.836Z,10.48
2019-03-10T03:35:51.665Z,10.45
2019-03-10T03:38:30.368Z,10.38
2019-03-10T03:41:10.863Z,10.29
2019-03-10T03:43:37.856Z,10.19
2019-03-10T03:46:05.013Z,10.13
2019-03-10T03:48:32.084Z,10.14
2019-03-10T03:50:59.351Z,10.11
2019-03-10T03:53:26.241Z,10.06
2019-03-10T03:55:53.080Z,10.03
2019-03-10T03:58:20.096Z,9.95
2019-03-10T04:00:48.749Z,9.88
2019-03-10T04:03:15.522Z,9.85
2019-03-10T04:05:42.789Z,9.83
2019-03-10T04:08:09.636Z,9.76
2019-03-10T04:10:36.375Z,9.73
2019-03-10T04:13:03.492Z,9.71
2019-03-10T04:15:30.454Z,9.68
2019-03-10T04:17:57.724Z,9.64
2019-03-10T04:20:24.650Z,9.60
2019-03-10T04:22:51.493Z,9.59
2019-03-10T04:25:18.372Z,9.54
2019-03-10T04:27:45.452Z,9.50
2019-03-10T04:30:13.139Z,9.46
2019-03-10T04:32:40.258Z,9.39
2019-03-10T04:35:07.024Z,9.28
2019-03-10T04:37:34.560Z,9.18
2019-03-10T04:40:01.531Z,9.15
2019-03-10T04:42:28.347Z,9.09
2019-03-10T04:44:55.229Z,9.08
2019-03-10T04:47:22.334Z,9.08
2019-03-10T04:49:49.097Z,9.09
2019-03-10T04:52:16.151Z,9.09
2019-03-10T04:54:51.856Z,9.07
2019-03-10T04:57:20.484Z,9.02
2019-03-10T04:59:47.649Z,9.02
2019-03-10T05:02:14.560Z,9.04
2019-03-10T05:04:41.337Z,9.04
2019-03-10T05:07:08.474Z,9.03
2019-03-10T05:09:35.353Z,8.99
2019-03-10T05:12:02.187Z,8.93
2019-03-10T05:14:29.233Z,8.88
2019-03-10T05:16:56.448Z,8.85
2019-03-10T05:19:23.675Z,8.85
2019-03-10T05:21:51.122Z,8.85
2019-03-10T05:24:18.034Z,8.88
2019-03-10T05:26:45.192Z,8.87
2019-03-10T05:29:12.305Z,8.85
2019-03-10T05:31:39.247Z,8.90
2019-03-10T05:34:06.532Z,8.89
2019-03-10T05:36:33.252Z,8.85
2019-03-10T05:39:00.231Z,8.85
2019-03-10T05:41:26.970Z,8.87
2019-03-10T05:43:53.793Z,8.89
2019-03-10T05:46:20.919Z,8.86
2019-03-10T05:48:47.661Z,8.83
2019-03-10T05:51:15.684Z,8.80
2019-03-10T05:53:43.133Z,8.78
2019-03-10T05:56:10.152Z,8.76
2019-03-10T05:58:36.911Z,8.77
2019-03-10T06:01:03.871Z,8.75
2019-03-10T06:03:30.719Z,8.70
2019-03-10T06:05:57.685Z,8.71
2019-03-10T06:08:24.799Z,8.72
2019-03-10T06:10:51.847Z,8.73
2019-03-10T06:13:18.681Z,8.74
2019-03-10T06:15:45.728Z,8.74
2019-03-10T06:18:13.975Z,8.75
2019-03-10T06:20:41.143Z,8.75
2019-03-10T06:23:07.868Z,8.80
2019-03-10T06:25:35.199Z,8.79
2019-03-10T06:28:02.239Z,8.80
2019-03-10T06:30:29.407Z,8.81
2019-03-10T06:32:56.142Z,8.80
2019-03-10T06:35:22.944Z,8.80
2019-03-10T06:37:49.867Z,9.09
2019-03-10T06:40:16.638Z,9.29
2019-03-10T06:42:43.848Z,9.60
2019-03-10T06:45:10.821Z,9.90
2019-03-10T06:47:37.597Z,10.16
2019-03-10T06:50:09.213Z,10.41
2019-03-10T06:52:36.158Z,10.73
2019-03-10T06:55:03.574Z,10.93
2019-03-10T06:57:30.350Z,11.08
2019-03-10T06:59:57.592Z,11.34
2019-03-10T07:02:24.435Z,11.41
2019-03-10T07:04:51.701Z,11.42
2019-03-10T07:07:18.460Z,11.40
2019-03-10T07:09:45.419Z,11.43
2019-03-10T07:12:12.570Z,11.42
2019-03-10T07:14:39.926Z,11.48
2019-03-10T07:17:07.105Z,11.58
2019-03-10T07:19:33.914Z,11.60
2019-03-10T07:22:01.371Z,11.58
2019-03-10T07:24:28.776Z,11.55
2019-03-10T07:26:55.552Z,11.49
2019-03-10T07:29:27.860Z,11.45
2019-03-10T07:31:59.582Z,11.42
2019-03-10T07:34:26.755Z,11.52
2019-03-10T07:36:53.961Z,11.51
2019-03-10T07:39:20.791Z,11.52
2019-03-10T07:41:58.261Z,11.52
2019-03-10T07:44:25.290Z,11.52
2019-03-10T07:46:58.537Z,11.81
2019-03-10T07:49:27.571Z,11.79
2019-03-10T07:51:56.803Z,11.71
2019-03-10T07:54:25.800Z,11.71
2019-03-10T07:57:05.079Z,11.70
2019-03-10T07:59:33.921Z,11.70
2019-03-10T08:02:03.382Z,11.79
2019-03-10T08:04:32.169Z,11.78
2019-03-10T08:07:18.019Z,11.77
2019-03-10T08:09:55.555Z,11.76
2019-03-10T08:12:41.085Z,11.73
2019-03-10T08:15:16.009Z,11.73
2019-03-10T08:18:01.520Z,11.68
2019-03-10T08:20:30.419Z,11.65
2019-03-10T08:22:59.379Z,11.59
2019-03-10T08:25:36.885Z,11.58
2019-03-10T08:28:23.544Z,11.60
2019-03-10T08:30:56.088Z,11.64
2019-03-10T08:33:25.463Z,11.74
2019-03-10T08:35:54.885Z,11.76
2019-03-10T08:38:29.605Z,11.76
2019-03-10T08:41:15.039Z,11.79
2019-03-10T08:43:44.097Z,11.82
2019-03-10T08:46:13.087Z,11.80
2019-03-10T08:48:58.234Z,11.73
2019-03-10T08:51:44.529Z,11.69
2019-03-10T08:54:13.246Z,11.73
2019-03-10T08:56:47.772Z,11.81
2019-03-10T08:59:16.655Z,11.84
2019-03-10T09:01:46.878Z,11.87
2019-03-10T09:04:15.921Z,11.87
2019-03-10T09:06:56.491Z,11.94
2019-03-10T09:09:28.258Z,12.05
2019-03-10T09:12:11.989Z,12.22
2019-03-10T09:14:52.737Z,12.35
2019-03-10T09:17:27.063Z,12.42
2019-03-10T09:19:56.455Z,12.47
2019-03-10T09:22:31.545Z,12.49
2019-03-10T09:25:18.208Z,12.52
2019-03-10T09:28:03.624Z,12.55
2019-03-10T09:30:51.882Z,12.68
2019-03-10T09:33:26.799Z,12.79
2019-03-10T09:35:55.806Z,12.68
2019-03-10T09:38:33.829Z,12.64
2019-03-10T09:41:01.622Z,12.64
2019-03-10T09:43:28.736Z,12.55
2019-03-10T09:46:00.286Z,12.49
2019-03-10T09:48:41.190Z,12.52
2019-03-10T09:51:25.355Z,12.62
2019-03-10T09:53:57.215Z,12.68
2019-03-10T09:56:44.569Z,12.70
2019-03-10T09:59:13.322Z,12.73
2019-03-10T10:01:42.097Z,12.82
2019-03-10T10:04:13.721Z,12.95
2019-03-10T10:06:51.691Z,13.04
2019-03-10T10:09:20.965Z,13.07
2019-03-10T10:11:53.979Z,13.03
2019-03-10T10:14:29.970Z,13.11
2019-03-10T10:17:13.926Z,13.35
2019-03-10T10:19:43.932Z,13.65
2019-03-10T10:22:28.488Z,14.06
2019-03-10T10:25:00.861Z,14.09
2019-03-10T10:27:47.359Z,14.09
2019-03-10T10:30:26.304Z,14.00
2019-03-10T10:33:10.972Z,13.84
2019-03-10T10:35:56.467Z,13.78
2019-03-10T10:38:28.001Z,13.83
2019-03-10T10:41:15.434Z,13.76
2019-03-10T10:43:45.188Z,14.01
2019-03-10T10:46:31.243Z,13.96
2019-03-10T10:49:11.990Z,14.27
2019-03-10T10:51:43.468Z,14.08
2019-03-10T10:54:22.970Z,14.15
2019-03-10T10:56:52.875Z,14.46
2019-03-10T10:59:39.111Z,14.62
2019-03-10T11:02:09.193Z,14.29
2019-03-10T11:04:38.030Z,14.12
2019-03-10T11:07:15.004Z,13.91
2019-03-10T11:09:42.521Z,13.60
2019-03-10T11:12:23.274Z,13.50
2019-03-10T11:15:02.026Z,13.67
2019-03-10T11:17:31.553Z,13.95
2019-03-10T11:19:59.140Z,14.33
2019-03-10T11:22:38.777Z,15.11
2019-03-10T11:25:25.002Z,15.19
2019-03-10T11:28:00.277Z,15.02
2019-03-10T11:30:32.705Z,14.98
2019-03-10T11:33:02.405Z,15.82
2019-03-10T11:35:31.550Z,16.32
2019-03-10T11:38:01.401Z,16.00
2019-03-10T11:40:33.412Z,15.80
2019-03-10T11:43:02.866Z,15.49
2019-03-10T11:45:38.198Z,14.78
2019-03-10T11:48:16.732Z,14.41
2019-03-10T11:50:48.985Z,14.21
2019-03-10T11:53:20.729Z,14.67
2019-03-10T11:55:49.688Z,15.88
2019-03-10T11:58:23.184Z,16.09
2019-03-10T12:01:04.782Z,15.78
2019-03-10T12:03:46.135Z,16.08
2019-03-10T12:06:17.609Z,15.82
2019-03-10T12:08:46.829Z,16.57
2019-03-10T12:11:13.748Z,16.38
2019-03-10T12:13:40.905Z,17.03
2019-03-10T12:16:08.390Z,15.91
2019-03-10T12:18:35.252Z,15.78
2019-03-10T12:21:03.218Z,15.58
2019-03-10T12:23:30.242Z,14.95
2019-03-10T12:25:57.514Z,14.78
2019-03-10T12:28:24.278Z,14.59
2019-03-10T12:30:51.467Z,15.09
2019-03-10T12:33:18.218Z,14.66
2019-03-10T12:35:45.309Z,14.18
2019-03-10T12:38:12.446Z,13.94
2019-03-10T12:40:39.241Z,13.89
2019-03-10T12:43:07.916Z,13.74
2019-03-10T12:45:34.684Z,13.62
2019-03-10T12:48:02.039Z,13.31
2019-03-10T12:50:29.410Z,13.16
2019-03-10T12:52:56.236Z,13.41
2019-03-10T12:55:23.160Z,14.72
2019-03-10T12:57:50.029Z,15.86
2019-03-10T13:00:17.074Z,16.52
2019-03-10T13:02:43.996Z,16.63
2019-03-10T13:05:14.367Z,17.79
2019-03-10T13:07:41.140Z,18.61
2019-03-10T13:10:08.279Z,18.09
2019-03-10T13:12:35.350Z,17.72
2019-03-10T13:15:06.761Z,16.67
2019-03-10T13:17:33.850Z,16.21
2019-03-10T13:20:05.118Z,15.61
2019-03-10T13:22:32.310Z,15.27
2019-03-10T13:24:59.223Z,15.28
2019-03-10T13:27:26.334Z,15.12
2019-03-10T13:29:53.283Z,14.88
2019-03-10T13:32:20.184Z,14.84
2019-03-10T13:34:46.986Z,14.77
2019-03-10T13:37:14.357Z,14.67
2019-03-10T13:39:41.303Z,14.35
2019-03-10T13:42:08.461Z,14.27
2019-03-10T13:44:35.490Z,14.34
2019-03-10T13:47:09.103Z,14.15
2019-03-10T13:49:35.099Z,14.29
2019-03-10T13:52:02.366Z,15.50
2019-03-10T13:54:29.267Z,15.46
2019-03-10T13:56:57.992Z,15.69
2019-03-10T13:59:25.239Z,15.06
2019-03-10T14:01:52.171Z,14.66
2019-03-10T14:04:19.132Z,14.33
2019-03-10T14:06:45.911Z,14.10
2019-03-10T14:09:12.893Z,14.06
2019-03-10T14:11:39.690Z,14.06
2019-03-10T14:14:09.865Z,14.10
2019-03-10T14:16:37.082Z,14.13
2019-03-10T14:19:04.331Z,14.36
2019-03-10T14:21:32.569Z,14.39
2019-03-10T14:24:00.585Z,14.22
2019-03-10T14:26:27.771Z,14.91
2019-03-10T14:28:55.145Z,15.66
2019-03-10T14:31:22.118Z,16.44
2019-03-10T14:33:51.407Z,16.43
2019-03-10T14:36:18.833Z,16.67
2019-03-10T14:38:46.545Z,16.63
2019-03-10T14:41:13.778Z,16.61
2019-03-10T14:43:40.574Z,16.03
2019-03-10T14:46:07.521Z,15.72
2019-03-10T14:48:34.451Z,15.08
2019-03-10T14:51:01.843Z,14.80
2019-03-10T14:53:28.988Z,14.91
2019-03-10T14:55:56.287Z,14.90
2019-03-10T14:58:23.637Z,14.91
2019-03-10T15:00:50.642Z,14.91
2019-03-10T15:03:17.795Z,14.85
2019-03-10T15:05:44.752Z,14.75
2019-03-10T15:08:12.001Z,14.54
2019-03-10T15:10:39.580Z,14.46
2019-03-10T15:13:06.934Z,14.35
2019-03-10T15:15:34.175Z,14.21
2019-03-10T15:18:02.974Z,14.28
2019-03-10T15:20:30.210Z,14.28
2019-03-10T15:22:57.091Z,14.24
2019-03-10T15:25:25.355Z,14.22
2019-03-10T15:27:52.247Z,14.13
2019-03-10T15:30:23.855Z,14.08
2019-03-10T15:32:51.121Z,14.02
2019-03-10T15:35:18.544Z,13.91
2019-03-10T15:37:46.111Z,13.73
2019-03-10T15:40:15.735Z,13.57
2019-03-10T15:42:43.360Z,13.48
2019-03-10T15:45:12.683Z,13.45
2019-03-10T15:47:39.866Z,13.38
2019-03-10T15:50:15.378Z,13.28
2019-03-10T15:52:42.300Z,13.19
2019-03-10T15:55:09.749Z,13.17
2019-03-10T15:57:36.676Z,13.13
2019-03-10T16:00:12.158Z,13.07
2019-03-10T16:02:39.056Z,13.07
2019-03-10T16:05:09.934Z,13.07
2019-03-10T16:07:36.906Z,13.12
2019-03-10T16:10:08.461Z,13.09
2019-03-10T16:12:35.454Z,13.03
2019-03-10T16:15:07.592Z,12.96
2019-03-10T16:17:34.672Z,12.93
2019-03-10T16:20:02.008Z,12.84
2019-03-10T16:22:29.085Z,12.78
2019-03-10T16:24:56.351Z,12.68
2019-03-10T16:27:23.135Z,12.70
2019-03-10T16:29:50.016Z,12.71
2019-03-10T16:32:16.844Z,12.68
2019-03-10T16:34:44.139Z,12.66
2019-03-10T16:37:10.976Z,12.58
2019-03-10T16:39:38.211Z,12.52
2019-03-10T16:42:05.504Z,12.49
2019-03-10T16:44:32.456Z,12.43
2019-03-10T16:46:59.310Z,12.38
2019-03-10T16:49:26.064Z,12.29
2019-03-10T16:51:53.106Z,12.36
2019-03-10T16:54:20.018Z,12.32
2019-03-10T16:56:46.859Z,12.27
2019-03-10T16:59:14.215Z,12.29
2019-03-10T17:01:41.012Z,12.23
2019-03-10T17:04:11.458Z,12.11
2019-03-10T17:06:38.522Z,12.04
2019-03-10T17:09:17.132Z,11.99
2019-03-10T17:11:46.387Z,11.95
2019-03-10T17:14:13.604Z,11.93
2019-03-10T17:16:40.413Z,11.85
2019-03-10T17:19:09.497Z,11.83
2019-03-10T17:21:38.070Z,11.81
2019-03-10T17:24:05.411Z,11.74
2019-03-10T17:26:33.797Z,11.68
2019-03-10T17:29:00.556Z,11.59
2019-03-10T17:31:27.314Z,11.59
2019-03-10T17:33:54.099Z,11.58
2019-03-10T17:36:21.410Z,11.56
2019-03-10T17:38:58.855Z,11.47
2019-03-10T17:41:26.040Z,11.42
2019-03-10T17:43:52.923Z,11.39
2019-03-10T17:46:19.711Z,11.40
2019-03-10T17:48:47.408Z,11.47
2019-03-10T17:51:14.846Z,11.48
2019-03-10T17:53:42.162Z,11.49
2019-03-10T17:56:09.021Z,11.52
2019-03-10T17:58:36.365Z,11.48
2019-03-10T18:01:03.639Z,11.29
2019-03-10T18:03:30.472Z,10.94
2019-03-10T18:05:57.715Z,10.86
2019-03-10T18:08:24.535Z,10.81
2019-03-10T18:10:53.973Z,10.71
2019-03-10T18:13:20.748Z,10.63
2019-03-10T18:15:47.850Z,10.64
2019-03-10T18:18:14.615Z,10.69
2019-03-10T18:20:43.972Z,10.77
2019-03-10T18:23:11.010Z,10.70
2019-03-10T18:25:37.953Z,9.99
2019-03-10T18:28:06.252Z,9.02
2019-03-10T18:30:33.966Z,8.86
2019-03-10T18:33:00.925Z,8.67
2019-03-10T18:35:27.944Z,8.68
2019-03-10T18:37:54.907Z,8.68
2019-03-10T18:40:23.721Z,8.63
2019-03-10T18:42:50.895Z,8.72
2019-03-10T18:45:19.191Z,8.77
2019-03-10T18:47:46.313Z,8.76
2019-03-10T18:50:23.963Z,8.80
2019-03-10T18:52:51.267Z,8.89
2019-03-10T18:55:18.454Z,8.95
2019-03-10T18:57:45.491Z,8.96
2019-03-10T19:00:25.302Z,8.96
2019-03-10T19:02:52.432Z,9.00
2019-03-10T19:05:19.510Z,9.02
2019-03-10T19:07:46.476Z,8.91
2019-03-10T19:10:16.028Z,8.93
2019-03-10T19:12:43.127Z,8.81
2019-03-10T19:15:26.851Z,8.90
2019-03-10T19:17:53.767Z,8.98
2019-03-10T19:20:21.128Z,9.05
2019-03-10T19:22:48.245Z,8.91
2019-03-10T19:25:16.281Z,8.90
2019-03-10T19:27:43.957Z,8.91
2019-03-10T19:30:16.334Z,8.80
2019-03-10T19:32:43.262Z,8.84
2019-03-10T19:35:12.116Z,8.84
2019-03-10T19:37:39.112Z,8.83
2019-03-10T19:40:17.682Z,8.91
2019-03-10T19:42:44.704Z,8.93
2019-03-10T19:45:17.191Z,8.91
2019-03-10T19:47:44.195Z,8.89
2019-03-10T19:50:23.546Z,8.84
2019-03-10T19:52:50.693Z,8.88
2019-03-10T19:55:17.626Z,8.93
2019-03-10T19:57:44.688Z,8.98
2019-03-10T20:00:16.689Z,9.02
2019-03-10T20:02:43.637Z,9.04
2019-03-10T20:05:13.477Z,8.99
2019-03-10T20:07:40.475Z,8.89
2019-03-10T20:10:19.026Z,8.84
2019-03-10T20:12:46.282Z,8.87
2019-03-10T20:15:20.285Z,8.90
2019-03-10T20:17:47.331Z,8.84
2019-03-10T20:20:18.178Z,8.81
2019-03-10T20:22:45.202Z,8.72
2019-03-10T20:25:16.915Z,8.71
2019-03-10T20:27:44.327Z,8.76
2019-03-10T20:30:17.728Z,8.76
2019-03-10T20:32:44.772Z,8.73
2019-03-10T20:35:12.059Z,8.70
2019-03-10T20:37:39.263Z,8.65
2019-03-10T20:40:16.050Z,8.68
2019-03-10T20:42:43.360Z,8.73
2019-03-10T20:45:13.116Z,8.69
2019-03-10T20:47:40.181Z,8.59
2019-03-10T20:50:16.620Z,8.55
2019-03-10T20:52:43.667Z,8.48
2019-03-10T20:55:13.203Z,8.64
2019-03-10T20:57:41.323Z,8.59
2019-03-10T21:00:20.657Z,8.64
2019-03-10T21:02:47.428Z,8.70
2019-03-10T21:05:14.696Z,8.62
2019-03-10T21:07:41.690Z,8.70
2019-03-10T21:10:15.161Z,8.65
2019-03-10T21:12:42.922Z,8.68
2019-03-10T21:15:16.189Z,8.73
2019-03-10T21:17:43.104Z,8.73
2019-03-10T21:20:13.289Z,8.53
2019-03-10T21:22:40.306Z,8.47
2019-03-10T21:25:17.780Z,8.49
2019-03-10T21:27:44.633Z,8.62
2019-03-10T21:30:18.139Z,8.49
2019-03-10T21:32:45.066Z,8.40
2019-03-10T21:35:17.463Z,8.41
2019-03-10T21:37:41.677Z,8.52
2019-03-10T21:40:15.479Z,8.59
2019-03-10T21:42:42.909Z,8.47
2019-03-10T21:45:10.089Z,8.46
2019-03-10T21:47:37.174Z,8.43
2019-03-10T21:50:14.020Z,8.42
2019-03-10T21:52:41.464Z,8.45
2019-03-10T21:55:11.518Z,8.46
2019-03-10T21:57:38.352Z,8.44
2019-03-10T22:00:12.889Z,8.44
2019-03-10T22:02:40.109Z,8.42
2019-03-10T22:05:10.563Z,8.42
2019-03-10T22:07:37.660Z,8.36
2019-03-10T22:10:11.888Z,8.39
2019-03-10T22:12:39.080Z,8.40
2019-03-10T22:15:10.400Z,8.31
2019-03-10T22:17:37.495Z,8.43
2019-03-10T22:20:11.620Z,8.46
2019-03-10T22:22:48.236Z,8.49
2019-03-10T22:25:12.984Z,8.47
2019-03-10T22:27:39.910Z,8.30
2019-03-10T22:30:20.556Z,8.23
2019-03-10T22:32:47.685Z,8.23
2019-03-10T22:35:14.845Z,8.25
2019-03-10T22:37:42.961Z,8.17
2019-03-10T22:40:12.419Z,8.22
2019-03-10T22:42:39.711Z,8.19
2019-03-10T22:45:18.709Z,8.25
2019-03-10T22:47:45.490Z,8.24
2019-03-10T22:50:15.212Z,8.24
2019-03-10T22:52:42.244Z,8.17
2019-03-10T22:55:12.395Z,8.19
2019-03-10T22:57:39.175Z,8.13
2019-03-10T23:00:22.627Z,8.14
2019-03-10T23:02:49.226Z,8.16
2019-03-10T23:05:16.020Z,7.94
2019-03-10T23:07:43.436Z,7.86
2019-03-10T23:10:14.183Z,7.72
2019-03-10T23:12:41.353Z,7.70
2019-03-10T23:15:11.226Z,7.71
2019-03-10T23:17:38.209Z,7.69
2019-03-10T23:20:10.148Z,7.62
2019-03-10T23:22:36.912Z,7.67
2019-03-10T23:25:06.333Z,7.66
2019-03-10T23:27:33.206Z,7.68
2019-03-10T23:30:01.046Z,7.64
2019-03-10T23:32:27.911Z,7.61
2019-03-10T23:34:55.197Z,7.50
2019-03-10T23:37:22.672Z,7.59
2019-03-10T23:39:49.753Z,7.55
2019-03-10T23:42:16.483Z,7.53
2019-03-10T23:44:43.651Z,7.47
2019-03-10T23:47:10.697Z,7.56
2019-03-10T23:49:38.868Z,7.55
2019-03-10T23:52:05.707Z,7.52
2019-03-10T23:54:32.828Z,7.48
2019-03-10T23:56:59.711Z,7.39
2019-03-10T23:59:28.523Z,7.41
